sensor_id;sensor_type;location;lat;lon;timestamp;pressure;altitude;pressure_sealevel;temperature;humidity
46638;BME280;32365;46.938;7.390;2023-02-18T06:55:41;96433.63;;;3.02;99.95
46638;BME280;32365;46.938;7.390;2023-02-18T06:58:09;96429.81;;;3.06;98.41
46638;BME280;32365;46.938;7.390;2023-02-18T07:00:36;96431.03;;;2.93;98.71
46638;BME280;32365;46.938;7.390;2023-02-18T07:03:03;96436.44;;;2.82;98.75
46638;BME280;32365;46.938;7.390;2023-02-18T07:05:30;96439.41;;;2.69;99.20
46638;BME280;32365;46.938;7.390;2023-02-18T07:07:57;96442.28;;;2.74;99.66
46638;BME280;32365;46.938;7.390;2023-02-18T07:10:23;96438.19;;;2.82;99.65
46638;BME280;32365;46.938;7.390;2023-02-18T07:12:51;96439.78;;;2.83;99.50
46638;BME280;32365;46.938;7.390;2023-02-18T07:15:18;96437.09;;;2.84;99.48
46638;BME280;32365;46.938;7.390;2023-02-18T07:17:48;96437.09;;;2.84;99.34
46638;BME280;32365;46.938;7.390;2023-02-18T07:20:14;96438.25;;;2.98;99.61
46638;BME280;32365;46.938;7.390;2023-02-18T07:22:41;96439.97;;;3.32;98.12
46638;BME280;32365;46.938;7.390;2023-02-18T07:25:07;96438.56;;;3.38;97.35
46638;BME280;32365;46.938;7.390;2023-02-18T07:27:34;96441.25;;;3.28;97.41
46638;BME280;32365;46.938;7.390;2023-02-18T07:30:02;96439.97;;;3.24;97.39
46638;BME280;32365;46.938;7.390;2023-02-18T07:32:29;96437.41;;;3.32;97.75
46638;BME280;32365;46.938;7.390;2023-02-18T07:34:55;96441.16;;;3.46;98.14
46638;BME280;32365;46.938;7.390;2023-02-18T07:37:22;96440.81;;;3.49;97.25
46638;BME280;32365;46.938;7.390;2023-02-18T07:39:49;96436.03;;;3.63;96.99
46638;BME280;32365;46.938;7.390;2023-02-18T07:42:15;96436.69;;;3.73;96.32
46638;BME280;32365;46.938;7.390;2023-02-18T07:44:42;96431.59;;;3.81;95.94
46638;BME280;32365;46.938;7.390;2023-02-18T07:47:12;96423.63;;;4.18;94.27
46638;BME280;32365;46.938;7.390;2023-02-18T07:49:39;96430.91;;;4.62;93.07
46638;BME280;32365;46.938;7.390;2023-02-18T07:52:06;96433.16;;;5.53;86.13
46638;BME280;32365;46.938;7.390;2023-02-18T07:54:32;96436.09;;;6.73;82.41
46638;BME280;32365;46.938;7.390;2023-02-18T07:56:59;96437.69;;;6.89;79.12
46638;BME280;32365;46.938;7.390;2023-02-18T07:59:25;96431.56;;;8.00;75.82
46638;BME280;32365;46.938;7.390;2023-02-18T08:01:52;96430.88;;;9.40;68.38
46638;BME280;32365;46.938;7.390;2023-02-18T08:04:20;96435.50;;;8.18;71.54
46638;BME280;32365;46.938;7.390;2023-02-18T08:06:47;96439.06;;;8.16;73.25
46638;BME280;32365;46.938;7.390;2023-02-18T08:09:16;96438.31;;;9.08;72.63
46638;BME280;32365;46.938;7.390;2023-02-18T08:11:42;96433.28;;;9.48;67.99
46638;BME280;32365;46.938;7.390;2023-02-18T08:14:09;96436.91;;;9.12;68.45
46638;BME280;32365;46.938;7.390;2023-02-18T08:16:36;96432.00;;;9.86;65.05
46638;BME280;32365;46.938;7.390;2023-02-18T08:19:03;96430.44;;;10.52;64.38
46638;BME280;32365;46.938;7.390;2023-02-18T08:21:31;96437.16;;;9.93;64.33
46638;BME280;32365;46.938;7.390;2023-02-18T08:23:58;96438.53;;;9.20;67.90
46638;BME280;32365;46.938;7.390;2023-02-18T08:26:24;96432.41;;;8.86;68.92
46638;BME280;32365;46.938;7.390;2023-02-18T08:28:51;96432.91;;;9.03;68.10
46638;BME280;32365;46.938;7.390;2023-02-18T08:31:20;96432.91;;;9.51;65.38
46638;BME280;32365;46.938;7.390;2023-02-18T08:33:47;96439.53;;;9.88;66.02
46638;BME280;32365;46.938;7.390;2023-02-18T08:36:14;96436.28;;;9.59;67.23
46638;BME280;32365;46.938;7.390;2023-02-18T08:38:42;96436.28;;;8.68;69.28
46638;BME280;32365;46.938;7.390;2023-02-18T08:41:08;96438.81;;;8.97;68.66
46638;BME280;32365;46.938;7.390;2023-02-18T08:43:35;96443.41;;;8.16;71.45
46638;BME280;32365;46.938;7.390;2023-02-18T08:46:02;96442.06;;;8.20;71.65
46638;BME280;32365;46.938;7.390;2023-02-18T08:48:29;96437.63;;;8.57;71.02
46638;BME280;32365;46.938;7.390;2023-02-18T08:50:56;96434.34;;;8.77;68.92
46638;BME280;32365;46.938;7.390;2023-02-18T08:53:22;96427.28;;;8.57;69.78
46638;BME280;32365;46.938;7.390;2023-02-18T08:55:50;96428.56;;;8.75;71.20
46638;BME280;32365;46.938;7.390;2023-02-18T08:58:17;96429.81;;;8.79;70.54
46638;BME280;32365;46.938;7.390;2023-02-18T09:00:44;96427.41;;;9.13;70.54
46638;BME280;32365;46.938;7.390;2023-02-18T09:03:11;96422.38;;;9.66;65.90
46638;BME280;32365;46.938;7.390;2023-02-18T09:05:38;96426.22;;;9.91;65.42
46638;BME280;32365;46.938;7.390;2023-02-18T09:08:05;96431.00;;;10.00;67.38
46638;BME280;32365;46.938;7.390;2023-02-18T09:10:31;96429.75;;;11.04;63.79
46638;BME280;32365;46.938;7.390;2023-02-18T09:12:59;96429.03;;;12.06;59.90
46638;BME280;32365;46.938;7.390;2023-02-18T09:15:26;96423.22;;;12.80;56.28
46638;BME280;32365;46.938;7.390;2023-02-18T09:17:52;96426.19;;;12.40;55.84
46638;BME280;32365;46.938;7.390;2023-02-18T09:20:19;96414.91;;;12.71;55.99
46638;BME280;32365;46.938;7.390;2023-02-18T09:22:46;96422.06;;;13.93;50.70
46638;BME280;32365;46.938;7.390;2023-02-18T09:25:12;96419.06;;;14.31;51.69
46638;BME280;32365;46.938;7.390;2023-02-18T09:27:39;96419.50;;;15.12;50.48
46638;BME280;32365;46.938;7.390;2023-02-18T09:30:08;96421.31;;;15.11;49.28
46638;BME280;32365;46.938;7.390;2023-02-18T09:32:34;96418.19;;;14.73;48.70
46638;BME280;32365;46.938;7.390;2023-02-18T09:35:01;96412.16;;;14.97;47.58
46638;BME280;32365;46.938;7.390;2023-02-18T09:37:28;96416.69;;;13.64;53.97
46638;BME280;32365;46.938;7.390;2023-02-18T09:39:54;96417.13;;;14.27;51.00
46638;BME280;32365;46.938;7.390;2023-02-18T09:42:26;96421.97;;;16.05;48.50
46638;BME280;32365;46.938;7.390;2023-02-18T09:44:57;96427.66;;;15.56;49.38
46638;BME280;32365;46.938;7.390;2023-02-18T09:47:30;96420.31;;;16.50;46.89
46638;BME280;32365;46.938;7.390;2023-02-18T09:50:00;96417.75;;;18.16;41.26
46638;BME280;32365;46.938;7.390;2023-02-18T09:52:32;96418.28;;;17.14;45.18
46638;BME280;32365;46.938;7.390;2023-02-18T09:55:00;96416.81;;;17.45;43.16
46638;BME280;32365;46.938;7.390;2023-02-18T09:57:34;96414.22;;;18.38;41.30
46638;BME280;32365;46.938;7.390;2023-02-18T10:00:10;96411.63;;;18.43;41.44
46638;BME280;32365;46.938;7.390;2023-02-18T10:02:40;96415.16;;;18.21;42.65
46638;BME280;32365;46.938;7.390;2023-02-18T10:05:13;96415.88;;;19.71;40.03
46638;BME280;32365;46.938;7.390;2023-02-18T10:07:41;96412.81;;;22.42;35.44
46638;BME280;32365;46.938;7.390;2023-02-18T10:10:17;96417.34;;;21.62;36.97
46638;BME280;32365;46.938;7.390;2023-02-18T10:12:47;96421.72;;;21.27;37.77
46638;BME280;32365;46.938;7.390;2023-02-18T10:15:20;96417.63;;;22.35;35.24
46638;BME280;32365;46.938;7.390;2023-02-18T10:17:49;96422.25;;;22.19;34.72
46638;BME280;32365;46.938;7.390;2023-02-18T10:20:20;96435.59;;;20.82;38.28
46638;BME280;32365;46.938;7.390;2023-02-18T10:22:48;96432.31;;;21.72;36.00
46638;BME280;32365;46.938;7.390;2023-02-18T10:25:18;96438.13;;;21.68;36.65
46638;BME280;32365;46.938;7.390;2023-02-18T10:27:47;96436.25;;;21.74;35.74
46638;BME280;32365;46.938;7.390;2023-02-18T10:30:21;96430.31;;;22.27;34.90
46638;BME280;32365;46.938;7.390;2023-02-18T10:32:55;96427.16;;;19.77;39.30
46638;BME280;32365;46.938;7.390;2023-02-18T10:35:29;96430.38;;;20.36;40.10
46638;BME280;32365;46.938;7.390;2023-02-18T10:38:04;96420.06;;;19.77;39.89
46638;BME280;32365;46.938;7.390;2023-02-18T10:40:43;96422.75;;;20.24;39.56
46638;BME280;32365;46.938;7.390;2023-02-18T10:43:19;96416.59;;;19.56;40.85
46638;BME280;32365;46.938;7.390;2023-02-18T10:45:54;96412.22;;;20.29;38.93
46638;BME280;32365;46.938;7.390;2023-02-18T10:48:37;96418.75;;;20.78;37.76
46638;BME280;32365;46.938;7.390;2023-02-18T10:51:14;96413.44;;;21.59;36.84
46638;BME280;32365;46.938;7.390;2023-02-18T10:53:44;96407.22;;;22.49;35.86
46638;BME280;32365;46.938;7.390;2023-02-18T10:56:31;96405.75;;;23.34;32.81
46638;BME280;32365;46.938;7.390;2023-02-18T10:59:00;96393.31;;;23.54;32.69
46638;BME280;32365;46.938;7.390;2023-02-18T11:01:30;96400.88;;;22.20;35.16
46638;BME280;32365;46.938;7.390;2023-02-18T11:04:07;96397.81;;;22.91;34.02
46638;BME280;32365;46.938;7.390;2023-02-18T11:06:39;96405.28;;;22.59;34.30
46638;BME280;32365;46.938;7.390;2023-02-18T11:09:06;96404.16;;;22.66;34.38
46638;BME280;32365;46.938;7.390;2023-02-18T11:11:46;96404.81;;;22.52;34.60
46638;BME280;32365;46.938;7.390;2023-02-18T11:14:15;96401.22;;;22.08;34.54
46638;BME280;32365;46.938;7.390;2023-02-18T11:17:08;96398.41;;;22.29;35.32
46638;BME280;32365;46.938;7.390;2023-02-18T11:19:37;96385.88;;;21.81;35.08
46638;BME280;32365;46.938;7.390;2023-02-18T11:22:13;96391.91;;;22.75;34.20
46638;BME280;32365;46.938;7.390;2023-02-18T11:24:41;96387.00;;;23.12;33.34
46638;BME280;32365;46.938;7.390;2023-02-18T11:27:16;96382.03;;;22.86;33.90
46638;BME280;32365;46.938;7.390;2023-02-18T11:29:44;96376.75;;;23.48;32.34
46638;BME280;32365;46.938;7.390;2023-02-18T11:32:11;96382.38;;;23.80;32.17
46638;BME280;32365;46.938;7.390;2023-02-18T11:34:41;96376.19;;;23.32;33.38
46638;BME280;32365;46.938;7.390;2023-02-18T11:37:11;96367.59;;;23.98;32.07
46638;BME280;32365;46.938;7.390;2023-02-18T11:39:43;96361.34;;;23.36;32.61
46638;BME280;32365;46.938;7.390;2023-02-18T11:42:12;96351.81;;;23.16;32.29
46638;BME280;32365;46.938;7.390;2023-02-18T11:44:47;96360.50;;;22.98;33.16
46638;BME280;32365;46.938;7.390;2023-02-18T11:47:26;96344.53;;;23.08;33.42
46638;BME280;32365;46.938;7.390;2023-02-18T11:50:13;96337.53;;;23.17;32.48
46638;BME280;32365;46.938;7.390;2023-02-18T11:52:42;96334.38;;;21.94;35.44
46638;BME280;32365;46.938;7.390;2023-02-18T11:55:15;96324.72;;;23.49;32.36
46638;BME280;32365;46.938;7.390;2023-02-18T11:57:44;96334.22;;;22.87;32.49
46638;BME280;32365;46.938;7.390;2023-02-18T12:00:19;96330.94;;;23.72;32.00
46638;BME280;32365;46.938;7.390;2023-02-18T12:02:46;96321.28;;;24.15;31.42
46638;BME280;32365;46.938;7.390;2023-02-18T12:05:19;96324.88;;;22.95;32.56
46638;BME280;32365;46.938;7.390;2023-02-18T12:07:48;96314.81;;;23.74;32.59
46638;BME280;32365;46.938;7.390;2023-02-18T12:10:21;96311.84;;;23.61;31.84
46638;BME280;32365;46.938;7.390;2023-02-18T12:12:51;96309.94;;;23.81;32.60
46638;BME280;32365;46.938;7.390;2023-02-18T12:15:23;96299.91;;;23.06;32.73
46638;BME280;32365;46.938;7.390;2023-02-18T12:18:04;96299.44;;;22.61;34.34
46638;BME280;32365;46.938;7.390;2023-02-18T12:21:09;96295.06;;;23.14;32.91
46638;BME280;32365;46.938;7.390;2023-02-18T12:23:46;96283.78;;;22.70;33.93
46638;BME280;32365;46.938;7.390;2023-02-18T12:26:22;96277.69;;;22.69;34.12
46638;BME280;32365;46.938;7.390;2023-02-18T12:29:05;96280.28;;;22.26;34.17
46638;BME280;32365;46.938;7.390;2023-02-18T12:31:58;96280.13;;;21.13;36.30
46638;BME280;32365;46.938;7.390;2023-02-18T12:34:41;96277.69;;;21.27;36.63
46638;BME280;32365;46.938;7.390;2023-02-18T12:37:24;96280.63;;;22.68;35.13
46638;BME280;32365;46.938;7.390;2023-02-18T12:40:05;96275.88;;;22.45;34.80
46638;BME280;32365;46.938;7.390;2023-02-18T12:42:48;96271.19;;;22.13;35.46
46638;BME280;32365;46.938;7.390;2023-02-18T12:45:34;96270.00;;;22.00;35.81
46638;BME280;32365;46.938;7.390;2023-02-18T12:48:17;96276.66;;;21.92;36.31
46638;BME280;32365;46.938;7.390;2023-02-18T12:50:57;96268.41;;;21.99;36.10
46638;BME280;32365;46.938;7.390;2023-02-18T12:53:38;96255.38;;;22.13;35.47
46638;BME280;32365;46.938;7.390;2023-02-18T12:59:05;96247.38;;;21.30;37.43
46638;BME280;32365;46.938;7.390;2023-02-18T13:01:36;96246.56;;;21.34;37.13
46638;BME280;32365;46.938;7.390;2023-02-18T13:04:22;96243.53;;;21.17;38.09
46638;BME280;32365;46.938;7.390;2023-02-18T13:07:29;96236.91;;;21.54;37.25
46638;BME280;32365;46.938;7.390;2023-02-18T13:10:23;96230.13;;;21.13;38.50
46638;BME280;32365;46.938;7.390;2023-02-18T13:12:55;96230.16;;;21.43;37.44
46638;BME280;32365;46.938;7.390;2023-02-18T13:15:31;96230.63;;;21.50;37.87
46638;BME280;32365;46.938;7.390;2023-02-18T13:18:04;96226.97;;;21.11;38.02
46638;BME280;32365;46.938;7.390;2023-02-18T13:20:38;96223.22;;;21.22;38.69
46638;BME280;32365;46.938;7.390;2023-02-18T13:23:15;96224.97;;;20.42;39.74
46638;BME280;32365;46.938;7.390;2023-02-18T13:25:43;96236.44;;;19.71;41.48
46638;BME280;32365;46.938;7.390;2023-02-18T13:28:17;96229.34;;;18.94;42.35
46638;BME280;32365;46.938;7.390;2023-02-18T13:30:48;96228.31;;;19.10;42.75
46638;BME280;32365;46.938;7.390;2023-02-18T13:33:25;96211.22;;;19.59;42.03
46638;BME280;32365;46.938;7.390;2023-02-18T13:35:58;96203.59;;;19.94;40.87
46638;BME280;32365;46.938;7.390;2023-02-18T13:38:40;96203.84;;;19.92;40.71
46638;BME280;32365;46.938;7.390;2023-02-18T13:41:15;96198.06;;;19.95;40.59
46638;BME280;32365;46.938;7.390;2023-02-18T13:43:44;96205.16;;;19.79;40.77
46638;BME280;32365;46.938;7.390;2023-02-18T13:46:12;96208.63;;;19.02;42.52
46638;BME280;32365;46.938;7.390;2023-02-18T13:48:43;96204.09;;;18.72;43.24
46638;BME280;32365;46.938;7.390;2023-02-18T13:51:12;96200.69;;;18.87;42.63
46638;BME280;32365;46.938;7.390;2023-02-18T13:53:41;96207.06;;;19.12;41.98
46638;BME280;32365;46.938;7.390;2023-02-18T13:56:09;96196.81;;;19.10;42.77
46638;BME280;32365;46.938;7.390;2023-02-18T13:58:48;96196.28;;;19.08;42.58
46638;BME280;32365;46.938;7.390;2023-02-18T14:01:21;96199.72;;;19.24;42.19
46638;BME280;32365;46.938;7.390;2023-02-18T14:03:54;96190.78;;;19.51;41.74
46638;BME280;32365;46.938;7.390;2023-02-18T14:06:23;96190.19;;;18.66;43.70
46638;BME280;32365;46.938;7.390;2023-02-18T14:08:50;96183.69;;;19.15;42.61
46638;BME280;32365;46.938;7.390;2023-02-18T14:11:32;96189.72;;;19.21;42.47
46638;BME280;32365;46.938;7.390;2023-02-18T14:14:35;96185.53;;;18.10;44.66
46638;BME280;32365;46.938;7.390;2023-02-18T14:20:28;96181.94;;;18.31;44.66
46638;BME280;32365;46.938;7.390;2023-02-18T14:22:56;96175.63;;;17.74;46.22
46638;BME280;32365;46.938;7.390;2023-02-18T14:25:32;96169.66;;;17.41;47.14
46638;BME280;32365;46.938;7.390;2023-02-18T14:28:02;96163.97;;;17.12;47.83
46638;BME280;32365;46.938;7.390;2023-02-18T14:30:35;96165.06;;;16.88;48.60
46638;BME280;32365;46.938;7.390;2023-02-18T14:33:03;96160.84;;;16.60;48.89
46638;BME280;32365;46.938;7.390;2023-02-18T14:35:34;96155.31;;;16.51;49.97
46638;BME280;32365;46.938;7.390;2023-02-18T14:38:29;96154.47;;;16.45;50.43
46638;BME280;32365;46.938;7.390;2023-02-18T14:41:10;96151.22;;;16.38;50.81
46638;BME280;32365;46.938;7.390;2023-02-18T14:43:51;96144.69;;;16.13;50.93
46638;BME280;32365;46.938;7.390;2023-02-18T14:46:34;96151.09;;;16.00;51.54
46638;BME280;32365;46.938;7.390;2023-02-18T14:49:26;96137.47;;;15.98;51.78
46638;BME280;32365;46.938;7.390;2023-02-18T14:51:57;96133.66;;;16.28;51.21
46638;BME280;32365;46.938;7.390;2023-02-18T14:54:25;96135.97;;;16.52;50.29
46638;BME280;32365;46.938;7.390;2023-02-18T14:56:55;96129.41;;;16.77;49.71
46638;BME280;32365;46.938;7.390;2023-02-18T14:59:24;96122.81;;;16.69;49.37
46638;BME280;32365;46.938;7.390;2023-02-18T15:01:54;96133.81;;;17.04;48.24
46638;BME280;32365;46.938;7.390;2023-02-18T15:04:23;96122.81;;;17.39;47.30
46638;BME280;32365;46.938;7.390;2023-02-18T15:06:57;96127.81;;;17.03;48.57
46638;BME280;32365;46.938;7.390;2023-02-18T15:09:24;96121.66;;;16.92;47.82
46638;BME280;32365;46.938;7.390;2023-02-18T15:11:55;96118.66;;;17.06;47.97
46638;BME280;32365;46.938;7.390;2023-02-18T16:45:42;96074.66;;;12.22;65.31
46638;BME280;32365;46.938;7.390;2023-02-18T16:48:14;96078.28;;;12.21;64.71
46638;BME280;32365;46.938;7.390;2023-02-18T16:50:43;96078.81;;;12.11;65.40
46638;BME280;32365;46.938;7.390;2023-02-18T16:53:11;96078.69;;;11.88;66.14
46638;BME280;32365;46.938;7.390;2023-02-18T16:55:38;96077.28;;;11.85;66.20
46638;BME280;32365;46.938;7.390;2023-02-18T16:58:04;96085.19;;;11.78;66.57
46638;BME280;32365;46.938;7.390;2023-02-18T17:00:31;96081.94;;;11.46;67.75
46638;BME280;32365;46.938;7.390;2023-02-18T17:02:59;96082.13;;;11.26;68.23
46638;BME280;32365;46.938;7.390;2023-02-18T17:05:29;96091.66;;;11.06;69.84
46638;BME280;32365;46.938;7.390;2023-02-18T17:07:58;96087.22;;;10.88;70.52
46638;BME280;32365;46.938;7.390;2023-02-18T17:10:29;96089.78;;;10.70;71.30
46638;BME280;32365;46.938;7.390;2023-02-18T17:12:56;96089.78;;;10.70;71.78
46638;BME280;32365;46.938;7.390;2023-02-18T17:15:27;96083.09;;;10.81;71.62
46638;BME280;32365;46.938;7.390;2023-02-18T17:17:55;96083.56;;;10.71;72.34
46638;BME280;32365;46.938;7.390;2023-02-18T17:20:25;96088.66;;;10.59;72.11
46638;BME280;32365;46.938;7.390;2023-02-18T17:22:51;96092.84;;;10.21;73.48
46638;BME280;32365;46.938;7.390;2023-02-18T17:25:22;96091.88;;;10.15;73.30
46638;BME280;32365;46.938;7.390;2023-02-18T17:27:49;96096.81;;;10.17;74.15
46638;BME280;32365;46.938;7.390;2023-02-18T17:30:16;96096.06;;;10.10;74.78
46638;BME280;32365;46.938;7.390;2023-02-18T17:32:44;96100.84;;;10.06;74.54
46638;BME280;32365;46.938;7.390;2023-02-18T17:35:15;96104.91;;;9.89;75.22
46638;BME280;32365;46.938;7.390;2023-02-18T17:37:43;96111.31;;;9.79;75.63
46638;BME280;32365;46.938;7.390;2023-02-18T17:40:14;96098.00;;;9.62;76.25
46638;BME280;32365;46.938;7.390;2023-02-18T17:42:41;96108.00;;;9.52;76.93
46638;BME280;32365;46.938;7.390;2023-02-18T17:45:18;96099.09;;;9.41;76.84
46638;BME280;32365;46.938;7.390;2023-02-18T17:47:45;96098.50;;;9.32;77.61
46638;BME280;32365;46.938;7.390;2023-02-18T17:50:12;96107.44;;;9.30;78.13
46638;BME280;32365;46.938;7.390;2023-02-18T17:52:39;96100.88;;;9.20;78.56
46638;BME280;32365;46.938;7.390;2023-02-18T17:55:14;96098.50;;;9.05;78.91
46638;BME280;32365;46.938;7.390;2023-02-18T17:57:41;96100.09;;;9.06;78.67
46638;BME280;32365;46.938;7.390;2023-02-18T18:00:10;96094.34;;;8.98;78.79
46638;BME280;32365;46.938;7.390;2023-02-18T18:02:36;96103.28;;;8.95;79.04
46638;BME280;32365;46.938;7.390;2023-02-18T18:05:03;96103.88;;;8.90;79.42
46638;BME280;32365;46.938;7.390;2023-02-18T18:07:30;96102.69;;;8.93;79.96
46638;BME280;32365;46.938;7.390;2023-02-18T18:09:56;96107.84;;;8.86;80.10
46638;BME280;32365;46.938;7.390;2023-02-18T18:12:27;96109.03;;;8.63;80.84
46638;BME280;32365;46.938;7.390;2023-02-18T18:14:54;96108.03;;;8.71;81.02
46638;BME280;32365;46.938;7.390;2023-02-18T18:17:20;96111.59;;;8.57;81.29
46638;BME280;32365;46.938;7.390;2023-02-18T18:19:47;96116.94;;;8.49;81.36
46638;BME280;32365;46.938;7.390;2023-02-18T18:22:13;96114.38;;;8.49;82.14
46638;BME280;32365;46.938;7.390;2023-02-18T18:24:40;96113.34;;;8.43;82.09
46638;BME280;32365;46.938;7.390;2023-02-18T18:27:07;96121.66;;;8.31;82.93
46638;BME280;32365;46.938;7.390;2023-02-18T18:29:35;96113.66;;;8.13;83.66
46638;BME280;32365;46.938;7.390;2023-02-18T18:32:02;96120.38;;;8.07;83.54
46638;BME280;32365;46.938;7.390;2023-02-18T18:34:28;96115.19;;;8.00;84.65
46638;BME280;32365;46.938;7.390;2023-02-18T18:36:55;96113.09;;;8.18;83.65
46638;BME280;32365;46.938;7.390;2023-02-18T18:39:21;96118.03;;;8.19;83.72
46638;BME280;32365;46.938;7.390;2023-02-18T18:41:48;96119.78;;;8.12;83.88
46638;BME280;32365;46.938;7.390;2023-02-18T18:44:14;96118.38;;;8.02;83.64
46638;BME280;32365;46.938;7.390;2023-02-18T18:46:42;96122.34;;;7.98;84.34
46638;BME280;32365;46.938;7.390;2023-02-18T18:49:09;96115.78;;;8.02;84.41
46638;BME280;32365;46.938;7.390;2023-02-18T18:51:35;96115.75;;;7.89;84.33
46638;BME280;32365;46.938;7.390;2023-02-18T18:54:02;96119.13;;;7.90;84.93
46638;BME280;32365;46.938;7.390;2023-02-18T18:56:28;96120.50;;;7.92;84.72
46638;BME280;32365;46.938;7.390;2023-02-18T18:58:55;96115.78;;;8.02;84.24
46638;BME280;32365;46.938;7.390;2023-02-18T19:01:21;96124.94;;;8.05;83.88
46638;BME280;32365;46.938;7.390;2023-02-18T19:03:52;96124.63;;;8.35;83.05
46638;BME280;32365;46.938;7.390;2023-02-18T19:06:19;96127.06;;;8.50;82.45
46638;BME280;32365;46.938;7.390;2023-02-18T19:08:46;96127.66;;;8.52;82.08
46638;BME280;32365;46.938;7.390;2023-02-18T19:11:13;96117.75;;;8.56;81.85
46638;BME280;32365;46.938;7.390;2023-02-18T19:13:40;96120.69;;;8.46;81.99
46638;BME280;32365;46.938;7.390;2023-02-18T19:16:12;96116.94;;;8.49;81.93
46638;BME280;32365;46.938;7.390;2023-02-18T19:18:40;96106.44;;;8.50;81.67
46638;BME280;32365;46.938;7.390;2023-02-18T19:21:08;96113.53;;;8.41;81.99
46638;BME280;32365;46.938;7.390;2023-02-18T19:23:36;96116.53;;;8.45;81.59
46638;BME280;32365;46.938;7.390;2023-02-18T19:26:03;96117.69;;;8.42;81.50
46638;BME280;32365;46.938;7.390;2023-02-18T19:28:30;96125.22;;;8.30;81.91
46638;BME280;32365;46.938;7.390;2023-02-18T19:30:56;96124.16;;;8.11;82.59
46638;BME280;32365;46.938;7.390;2023-02-18T19:33:23;96132.22;;;7.95;83.92
46638;BME280;32365;46.938;7.390;2023-02-18T19:35:49;96131.44;;;7.94;83.55
46638;BME280;32365;46.938;7.390;2023-02-18T19:38:18;96128.59;;;7.76;84.83
46638;BME280;32365;46.938;7.390;2023-02-18T19:40:45;96130.31;;;7.68;85.47
46638;BME280;32365;46.938;7.390;2023-02-18T19:43:12;96129.31;;;7.63;85.64
46638;BME280;32365;46.938;7.390;2023-02-18T19:45:42;96136.84;;;7.64;85.56
46638;BME280;32365;46.938;7.390;2023-02-18T19:48:10;96131.88;;;7.63;85.87
46638;BME280;32365;46.938;7.390;2023-02-18T19:50:38;96134.41;;;7.56;86.19
46638;BME280;32365;46.938;7.390;2023-02-18T19:53:05;96135.47;;;7.33;85.30
46638;BME280;32365;46.938;7.390;2023-02-18T19:55:33;96139.59;;;7.28;85.36
46638;BME280;32365;46.938;7.390;2023-02-18T19:57:59;96140.19;;;7.01;86.35
46638;BME280;32365;46.938;7.390;2023-02-18T20:00:26;96142.88;;;6.93;87.33
46638;BME280;32365;46.938;7.390;2023-02-18T20:02:52;96141.78;;;6.81;87.92
46638;BME280;32365;46.938;7.390;2023-02-18T20:05:19;96140.94;;;6.73;88.62
46638;BME280;32365;46.938;7.390;2023-02-18T20:07:46;96146.38;;;6.63;89.49
46638;BME280;32365;46.938;7.390;2023-02-18T20:10:14;96145.09;;;6.53;89.07
46638;BME280;32365;46.938;7.390;2023-02-18T20:12:43;96144.22;;;6.45;89.20
46638;BME280;32365;46.938;7.390;2023-02-18T20:15:09;96151.28;;;6.37;89.94
46638;BME280;32365;46.938;7.390;2023-02-18T20:17:37;96149.81;;;6.12;89.06
46638;BME280;32365;46.938;7.390;2023-02-18T20:20:04;96150.59;;;5.98;91.92
46638;BME280;32365;46.938;7.390;2023-02-18T20:22:31;96153.16;;;5.98;92.38
46638;BME280;32365;46.938;7.390;2023-02-18T20:24:58;96146.38;;;6.05;93.05
46638;BME280;32365;46.938;7.390;2023-02-18T20:27:25;96159.66;;;5.94;92.50
46638;BME280;32365;46.938;7.390;2023-02-18T20:29:52;96153.69;;;5.93;92.90
46638;BME280;32365;46.938;7.390;2023-02-18T20:32:19;96145.63;;;5.96;92.60
46638;BME280;32365;46.938;7.390;2023-02-18T20:34:46;96149.44;;;5.85;91.79
46638;BME280;32365;46.938;7.390;2023-02-18T20:37:12;96151.25;;;5.70;92.23
46638;BME280;32365;46.938;7.390;2023-02-18T20:39:39;96148.84;;;5.68;92.75
46638;BME280;32365;46.938;7.390;2023-02-18T20:42:06;96153.44;;;5.73;93.49
46638;BME280;32365;46.938;7.390;2023-02-18T20:44:33;96158.66;;;5.80;93.47
46638;BME280;32365;46.938;7.390;2023-02-18T20:47:00;96157.16;;;5.70;92.82
46638;BME280;32365;46.938;7.390;2023-02-18T20:49:27;96154.69;;;5.62;92.97
46638;BME280;32365;46.938;7.390;2023-02-18T20:51:54;96151.16;;;5.63;93.19
46638;BME280;32365;46.938;7.390;2023-02-18T20:54:20;96156.88;;;5.65;93.67
46638;BME280;32365;46.938;7.390;2023-02-18T20:56:47;96150.63;;;5.68;93.27
46638;BME280;32365;46.938;7.390;2023-02-18T20:59:16;96159.72;;;5.70;92.91
46638;BME280;32365;46.938;7.390;2023-02-18T21:01:44;96155.47;;;5.78;93.27
46638;BME280;32365;46.938;7.390;2023-02-18T21:04:13;96155.75;;;5.68;92.86
46638;BME280;32365;46.938;7.390;2023-02-18T21:06:41;96160.81;;;5.61;93.50
46638;BME280;32365;46.938;7.390;2023-02-18T21:09:09;96150.97;;;5.65;94.16
46638;BME280;32365;46.938;7.390;2023-02-18T21:11:35;96153.69;;;5.48;93.74
46638;BME280;32365;46.938;7.390;2023-02-18T21:14:02;96150.72;;;5.75;93.45
46638;BME280;32365;46.938;7.390;2023-02-18T21:16:30;96150.53;;;5.61;92.55
46638;BME280;32365;46.938;7.390;2023-02-18T21:18:59;96147.44;;;5.51;92.98
46638;BME280;32365;46.938;7.390;2023-02-18T21:21:27;96149.47;;;5.41;93.09
46638;BME280;32365;46.938;7.390;2023-02-18T21:23:53;96149.88;;;5.29;93.36
46638;BME280;32365;46.938;7.390;2023-02-18T21:26:21;96142.97;;;5.30;93.56
46638;BME280;32365;46.938;7.390;2023-02-18T21:28:50;96160.59;;;5.33;94.63
46638;BME280;32365;46.938;7.390;2023-02-18T21:31:19;96146.59;;;5.35;94.59
46638;BME280;32365;46.938;7.390;2023-02-18T21:33:46;96149.72;;;5.46;94.06
46638;BME280;32365;46.938;7.390;2023-02-18T21:36:13;96146.06;;;5.40;94.15
46638;BME280;32365;46.938;7.390;2023-02-18T21:38:41;96145.28;;;5.39;94.45
46638;BME280;32365;46.938;7.390;2023-02-18T21:41:09;96149.81;;;5.52;94.28
46638;BME280;32365;46.938;7.390;2023-02-18T21:43:36;96145.47;;;5.68;92.70
46638;BME280;32365;46.938;7.390;2023-02-18T21:46:05;96146.59;;;5.65;92.47
46638;BME280;32365;46.938;7.390;2023-02-18T21:48:32;96148.94;;;5.60;92.80
46638;BME280;32365;46.938;7.390;2023-02-18T21:51:15;96150.34;;;5.48;93.71
46638;BME280;32365;46.938;7.390;2023-02-18T21:54:05;96144.66;;;5.52;93.79